Time;durP1;ratioP1;P1;durP2;ratioP2;P2;SDS_P1;SDS_P2;PMS_P1;PMS_P2;Temp;Humidity;BMP_temperature;BMP_pressure;BME280_temperature;BME280_humidity;BME280_pressure;Samples;Min_cycle;Max_cycle;Signal;HPM_P1;HPM_P2
2022/09/17 00:01:07;;;;;;;1.67;0.93;;;20.90;68.80;;;;;;5053016;28;20195;-70
2022/09/17 00:03:34;;;;;;;1.20;0.90;;;20.90;68.70;;;;;;5037092;28;20191;-70
2022/09/17 00:06:07;;;;;;;0.80;0.80;;;20.90;68.60;;;;;;5053065;28;20265;-70
2022/09/17 00:08:36;;;;;;;0.60;0.60;;;20.90;68.60;;;;;;5036554;28;20196;-70
2022/09/17 00:11:26;;;;;;;1.75;0.80;;;20.90;68.60;;;;;;5036674;28;20399;-70
2022/09/17 00:13:53;;;;;;;0.80;0.80;;;20.90;68.60;;;;;;5036149;28;20183;-70
2022/09/17 00:16:38;;;;;;;0.60;0.60;;;20.90;68.50;;;;;;5053206;28;20206;-70
2022/09/17 00:19:07;;;;;;;0.70;0.70;;;20.90;68.60;;;;;;5036741;28;20685;-70
2022/09/17 00:21:33;;;;;;;0.77;0.77;;;20.90;68.60;;;;;;5038550;28;20333;-70
2022/09/17 00:24:05;;;;;;;0.82;0.68;;;20.90;68.60;;;;;;5053383;28;20219;-70
2022/09/17 00:26:33;;;;;;;0.60;0.60;;;20.90;68.60;;;;;;5037593;28;20203;-70
2022/09/17 00:29:00;;;;;;;0.85;0.85;;;20.90;68.60;;;;;;5036155;28;20199;-70
2022/09/17 00:31:28;;;;;;;0.70;0.70;;;20.80;68.20;;;;;;5036586;28;20207;-70
2022/09/17 00:33:54;;;;;;;0.47;0.47;;;20.90;68.40;;;;;;5036544;28;20164;-70
2022/09/17 00:36:21;;;;;;;1.23;0.85;;;20.80;68.30;;;;;;5036654;28;20218;-70
2022/09/17 00:38:52;;;;;;;0.82;0.70;;;20.80;68.20;;;;;;5037082;28;20199;-70
2022/09/17 00:41:20;;;;;;;0.80;0.80;;;20.90;68.40;;;;;;5037052;28;20207;-70
2022/09/17 00:43:51;;;;;;;0.52;0.52;;;20.90;68.40;;;;;;5039155;28;20171;-70
2022/09/17 00:46:40;;;;;;;0.77;0.63;;;20.80;68.30;;;;;;5044187;28;20187;-70
2022/09/17 00:49:38;;;;;;;0.80;0.80;;;20.90;68.50;;;;;;5059432;28;20195;-70
2022/09/17 00:52:11;;;;;;;0.60;0.60;;;20.80;68.40;;;;;;5038301;28;20222;-70
2022/09/17 00:54:42;;;;;;;0.50;0.50;;;20.80;68.30;;;;;;5056133;28;20226;-69
2022/09/17 00:57:08;;;;;;;0.50;0.50;;;20.80;68.20;;;;;;5022983;28;20207;-69
2022/09/17 00:59:34;;;;;;;0.75;0.70;;;20.80;68.20;;;;;;5040146;28;20179;-69
2022/09/17 01:02:02;;;;;;;0.60;0.60;;;20.80;68.30;;;;;;5039178;28;20210;-70
2022/09/17 01:04:27;;;;;;;0.60;0.60;;;20.90;68.40;;;;;;5055589;28;20234;-70
2022/09/17 01:07:18;;;;;;;0.85;0.70;;;20.80;68.10;;;;;;5056039;28;20187;-70
2022/09/17 01:10:00;;;;;;;0.70;0.68;;;20.80;68.20;;;;;;5055025;28;20187;-70
2022/09/17 01:13:05;;;;;;;0.75;0.60;;;20.80;68.10;;;;;;5038383;28;20302;-70
2022/09/17 01:15:42;;;;;;;0.55;0.55;;;20.90;68.30;;;;;;5038477;28;20541;-70
2022/09/17 01:18:40;;;;;;;0.70;0.70;;;20.80;68.20;;;;;;5039048;28;20190;-70
2022/09/17 01:21:29;;;;;;;0.68;0.68;;;20.80;68.00;;;;;;5039131;28;20211;-70
2022/09/17 01:24:33;;;;;;;0.50;0.50;;;20.80;68.10;;;;;;5021793;28;20230;-69
2022/09/17 01:27:33;;;;;;;0.60;0.60;;;20.80;68.10;;;;;;5022186;28;20202;-70
2022/09/17 01:30:27;;;;;;;0.95;0.63;;;20.80;68.20;;;;;;5022466;28;20285;-70
2022/09/17 01:33:27;;;;;;;0.80;0.80;;;20.80;68.10;;;;;;5021828;28;20214;-70
2022/09/17 01:36:30;;;;;;;0.60;0.55;;;20.80;68.20;;;;;;5055094;28;20176;-70
2022/09/17 01:39:15;;;;;;;0.50;0.50;;;20.80;68.10;;;;;;5038049;28;20171;-70
2022/09/17 01:41:51;;;;;;;0.60;0.60;;;20.80;68.10;;;;;;5038123;28;20322;-70
2022/09/17 01:45:03;;;;;;;0.57;0.57;;;20.80;68.10;;;;;;5055413;28;20221;-70
2022/09/17 01:48:01;;;;;;;0.80;0.80;;;20.80;68.20;;;;;;5039071;28;20587;-70
2022/09/17 01:50:37;;;;;;;1.98;0.90;;;20.80;68.00;;;;;;5037842;28;20238;-70
2022/09/17 01:53:06;;;;;;;0.60;0.60;;;20.80;68.10;;;;;;5038242;28;20269;-70
2022/09/17 01:55:38;;;;;;;0.50;0.50;;;20.80;68.00;;;;;;5053829;28;20245;-70
2022/09/17 01:58:26;;;;;;;0.70;0.70;;;20.80;68.00;;;;;;5050417;28;20321;-70
2022/09/17 02:01:02;;;;;;;0.65;0.65;;;20.80;67.90;;;;;;5054635;28;20242;-70
2022/09/17 02:03:39;;;;;;;0.93;0.90;;;20.80;68.10;;;;;;5054673;28;20572;-70
2022/09/17 02:06:26;;;;;;;0.95;0.80;;;20.80;68.00;;;;;;5037752;28;20203;-70
2022/09/17 02:09:06;;;;;;;0.70;0.70;;;20.80;68.00;;;;;;5038686;28;20174;-70
2022/09/17 02:11:37;;;;;;;0.77;0.50;;;20.80;68.00;;;;;;5038138;28;20210;-70
2022/09/17 02:14:21;;;;;;;0.77;0.52;;;20.80;67.80;;;;;;5037154;28;20183;-70
2022/09/17 02:16:54;;;;;;;0.60;0.60;;;20.80;68.10;;;;;;5037874;28;20649;-70
2022/09/17 02:19:36;;;;;;;0.70;0.70;;;20.80;67.80;;;;;;5038918;28;20174;-70
2022/09/17 02:22:51;;;;;;;0.70;0.70;;;20.80;67.90;;;;;;5037523;28;20209;-70
2022/09/17 02:25:29;;;;;;;0.60;0.60;;;20.80;68.00;;;;;;5053202;28;20227;-70
2022/09/17 02:28:31;;;;;;;0.70;0.60;;;20.80;67.90;;;;;;5037739;28;20194;-70
2022/09/17 02:31:00;;;;;;;0.60;0.60;;;20.80;68.00;;;;;;5052998;28;20649;-70
2022/09/17 02:33:29;;;;;;;0.60;0.60;;;20.80;67.80;;;;;;5038028;28;20168;-70
2022/09/17 02:35:54;;;;;;;0.43;0.43;;;20.80;67.80;;;;;;5032035;28;20202;-70
2022/09/17 02:38:25;;;;;;;0.60;0.60;;;20.80;67.80;;;;;;5036989;28;20187;-69
2022/09/17 02:41:13;;;;;;;0.45;0.45;;;20.80;67.90;;;;;;5037156;28;20199;-69
2022/09/17 02:44:08;;;;;;;0.70;0.70;;;20.80;67.90;;;;;;5038058;28;20619;-70
2022/09/17 02:47:15;;;;;;;0.43;0.43;;;20.80;67.80;;;;;;5036715;28;20195;-70
2022/09/17 02:50:26;;;;;;;0.70;0.70;;;20.80;67.80;;;;;;5053057;28;20237;-70
2022/09/17 02:53:18;;;;;;;0.60;0.60;;;20.80;67.80;;;;;;5036540;28;20199;-70
2022/09/17 02:56:36;;;;;;;0.70;0.70;;;20.80;67.80;;;;;;5036721;28;20226;-70
2022/09/17 02:59:20;;;;;;;0.60;0.60;;;20.80;67.80;;;;;;5039879;28;20195;-69
2022/09/17 03:02:06;;;;;;;0.50;0.50;;;20.80;67.80;;;;;;5038025;28;20234;-70
2022/09/17 03:04:34;;;;;;;0.63;0.60;;;20.80;67.80;;;;;;5052963;28;20199;-70
2022/09/17 03:07:08;;;;;;;0.75;0.75;;;20.80;67.80;;;;;;5037284;28;20245;-70
2022/09/17 03:09:35;;;;;;;0.40;0.40;;;20.70;67.70;;;;;;5036008;28;20253;-70
2022/09/17 03:12:01;;;;;;;0.88;0.70;;;20.70;67.70;;;;;;5036279;28;20203;-70
2022/09/17 03:14:27;;;;;;;0.50;0.43;;;20.70;67.70;;;;;;5037339;28;20290;-70
2022/09/17 03:16:53;;;;;;;0.45;0.45;;;20.70;67.70;;;;;;5036555;28;20231;-70
2022/09/17 03:19:18;;;;;;;0.60;0.60;;;20.70;67.70;;;;;;5037998;28;20183;-70
2022/09/17 03:21:44;;;;;;;0.40;0.40;;;20.70;67.80;;;;;;5036797;28;20215;-70
2022/09/17 03:24:10;;;;;;;0.47;0.47;;;20.70;67.70;;;;;;5036978;28;20213;-70
2022/09/17 03:26:38;;;;;;;0.50;0.50;;;20.70;67.70;;;;;;5052956;28;20278;-70
2022/09/17 03:29:04;;;;;;;0.52;0.52;;;20.70;67.70;;;;;;5053065;28;20195;-70
2022/09/17 03:31:30;;;;;;;0.82;0.55;;;20.80;67.80;;;;;;5052861;28;20215;-70
2022/09/17 03:33:56;;;;;;;0.70;0.70;;;20.80;67.80;;;;;;5037079;28;20187;-70
2022/09/17 03:36:21;;;;;;;0.75;0.60;;;20.70;67.70;;;;;;5020396;28;20203;-70
2022/09/17 03:38:47;;;;;;;0.45;0.45;;;20.70;67.70;;;;;;5036139;28;20209;-70
2022/09/17 03:41:13;;;;;;;0.50;0.50;;;20.70;67.70;;;;;;5052821;28;20214;-70
2022/09/17 03:43:38;;;;;;;1.13;0.60;;;20.70;67.80;;;;;;5036188;28;20259;-70
2022/09/17 03:46:05;;;;;;;0.68;0.50;;;20.70;67.70;;;;;;5035858;28;20206;-70
2022/09/17 03:48:34;;;;;;;1.05;0.60;;;20.70;67.70;;;;;;5036149;28;20183;-70
2022/09/17 03:51:00;;;;;;;0.80;0.63;;;20.70;68.50;;;;;;5035999;28;20276;-70
2022/09/17 03:53:25;;;;;;;0.60;0.60;;;20.70;67.70;;;;;;5035968;28;20194;-70
2022/09/17 03:55:51;;;;;;;0.70;0.70;;;20.70;67.70;;;;;;5052344;28;20183;-70
2022/09/17 03:58:17;;;;;;;0.82;0.60;;;20.70;67.70;;;;;;5036451;28;20241;-70
2022/09/17 04:00:43;;;;;;;0.75;0.65;;;20.70;67.60;;;;;;5036292;28;20225;-70
2022/09/17 04:03:09;;;;;;;0.65;0.65;;;20.70;67.70;;;;;;5019315;28;20190;-70
2022/09/17 04:05:35;;;;;;;0.70;0.70;;;20.70;67.70;;;;;;5052457;28;20219;-69
2022/09/17 04:08:01;;;;;;;0.70;0.70;;;20.70;67.70;;;;;;5035778;28;20618;-69
2022/09/17 04:10:28;;;;;;;0.90;0.60;;;20.70;67.70;;;;;;5052635;28;20183;-69
2022/09/17 04:12:53;;;;;;;0.60;0.60;;;20.70;67.70;;;;;;5052462;28;20237;-69
2022/09/17 04:15:19;;;;;;;0.88;0.70;;;20.70;67.80;;;;;;5052098;28;20234;-69
2022/09/17 04:17:45;;;;;;;0.70;0.70;;;20.70;67.70;;;;;;5037588;28;20239;-69
2022/09/17 04:20:11;;;;;;;0.60;0.60;;;20.70;67.70;;;;;;5039962;28;20199;-70
2022/09/17 04:22:36;;;;;;;0.60;0.60;;;20.70;67.50;;;;;;5040090;28;20219;-69
2022/09/17 04:25:02;;;;;;;0.90;0.75;;;20.70;67.60;;;;;;5039638;28;20242;-70
2022/09/17 04:27:28;;;;;;;0.70;0.70;;;20.70;67.60;;;;;;5040198;28;20188;-70
2022/09/17 04:29:54;;;;;;;0.60;0.60;;;20.70;67.70;;;;;;5040509;28;20183;-70
2022/09/17 04:32:19;;;;;;;0.50;0.50;;;20.70;67.90;;;;;;5039366;28;20203;-70
2022/09/17 04:34:45;;;;;;;0.90;0.70;;;20.70;67.70;;;;;;5039507;28;20224;-69
2022/09/17 04:37:11;;;;;;;1.02;0.50;;;20.70;67.70;;;;;;5039820;28;20198;-69
2022/09/17 04:39:37;;;;;;;0.47;0.40;;;20.70;67.60;;;;;;5040517;28;20657;-69
2022/09/17 04:42:03;;;;;;;1.02;0.60;;;20.70;67.70;;;;;;5039681;28;20210;-69
2022/09/17 04:44:29;;;;;;;0.47;0.47;;;20.70;68.50;;;;;;5039763;28;20207;-70
2022/09/17 04:46:55;;;;;;;0.50;0.50;;;20.60;67.60;;;;;;5055696;28;20183;-70
2022/09/17 04:49:21;;;;;;;0.70;0.47;;;20.70;67.60;;;;;;5039255;28;20179;-70
2022/09/17 04:51:46;;;;;;;0.70;0.70;;;20.70;67.70;;;;;;5039520;28;20253;-70
2022/09/17 04:54:13;;;;;;;0.90;0.60;;;20.70;67.60;;;;;;5039203;28;20187;-70
2022/09/17 04:56:39;;;;;;;0.75;0.50;;;20.70;67.60;;;;;;5039075;28;20190;-69
2022/09/17 04:59:04;;;;;;;0.80;0.50;;;20.60;67.40;;;;;;5038817;28;20184;-69
2022/09/17 05:01:30;;;;;;;1.92;0.70;;;20.70;67.60;;;;;;5038444;28;20199;-70
2022/09/17 05:03:56;;;;;;;0.70;0.70;;;20.60;67.50;;;;;;5038841;28;20214;-70
2022/09/17 05:06:22;;;;;;;0.63;0.60;;;20.70;67.70;;;;;;5022850;28;20215;-70
2022/09/17 05:08:47;;;;;;;0.73;0.73;;;20.70;67.70;;;;;;5038861;28;20187;-70
2022/09/17 05:11:13;;;;;;;0.60;0.50;;;20.60;67.50;;;;;;5055524;28;20218;-70
2022/09/17 05:13:39;;;;;;;0.70;0.68;;;20.60;67.40;;;;;;5055359;28;20195;-69
2022/09/17 05:16:05;;;;;;;1.05;0.50;;;20.60;67.40;;;;;;5022741;28;20183;-69
2022/09/17 05:18:30;;;;;;;1.20;0.75;;;20.70;67.60;;;;;;5055680;28;20725;-69
2022/09/17 05:20:56;;;;;;;0.60;0.45;;;20.60;67.50;;;;;;5056043;28;20207;-69
2022/09/17 05:23:22;;;;;;;0.65;0.50;;;20.60;67.50;;;;;;5056447;28;20195;-70
2022/09/17 05:25:48;;;;;;;0.85;0.60;;;20.60;67.60;;;;;;5041622;28;20219;-70
2022/09/17 05:28:13;;;;;;;0.60;0.60;;;20.70;67.70;;;;;;5044165;28;20192;-70
2022/09/17 05:30:39;;;;;;;0.55;0.55;;;20.60;67.40;;;;;;5039358;28;20187;-69
2022/09/17 05:33:06;;;;;;;0.70;0.70;;;20.70;67.70;;;;;;5053299;28;20180;-70
2022/09/17 05:35:34;;;;;;;0.40;0.40;;;20.60;67.60;;;;;;5037674;28;20187;-70
2022/09/17 05:38:04;;;;;;;0.65;0.50;;;20.60;67.60;;;;;;5037133;28;20195;-70
2022/09/17 05:40:31;;;;;;;0.93;0.57;;;20.60;67.50;;;;;;5037592;28;20667;-70
2022/09/17 05:43:03;;;;;;;0.82;0.65;;;20.60;67.60;;;;;;5021149;28;20184;-71
2022/09/17 05:45:29;;;;;;;0.50;0.50;;;20.60;67.50;;;;;;5037958;28;20242;-69
2022/09/17 05:47:57;;;;;;;0.90;0.60;;;20.70;67.30;;;;;;5038092;28;20183;-70
2022/09/17 05:50:24;;;;;;;1.33;0.65;;;20.60;67.10;;;;;;5038800;28;20172;-70
2022/09/17 05:52:53;;;;;;;1.17;0.50;;;20.60;67.40;;;;;;5054534;28;20180;-70
2022/09/17 05:55:21;;;;;;;0.70;0.55;;;20.60;67.10;;;;;;5037634;28;20219;-70
2022/09/17 05:57:50;;;;;;;1.55;0.70;;;20.60;67.00;;;;;;5037061;28;20183;-70
2022/09/17 06:00:17;;;;;;;2.13;0.88;;;20.60;66.80;;;;;;5053715;28;20257;-70
2022/09/17 06:02:42;;;;;;;0.52;0.50;;;20.60;67.00;;;;;;5020004;28;20721;-70
2022/09/17 06:09:15;;;;;;;1.75;0.88;;;20.60;67.20;;;;;;5034829;28;20218;-71
2022/09/17 06:11:40;;;;;;;1.15;0.70;;;20.60;66.90;;;;;;5039238;28;20211;-70
2022/09/17 06:14:08;;;;;;;1.02;0.70;;;20.60;67.00;;;;;;5037194;28;20207;-70
2022/09/17 06:16:34;;;;;;;0.73;0.70;;;20.60;67.00;;;;;;5036593;28;20187;-70
2022/09/17 06:19:00;;;;;;;0.90;0.90;;;20.60;67.80;;;;;;5036100;28;20193;-70
2022/09/17 06:21:26;;;;;;;1.08;0.80;;;20.60;67.00;;;;;;5053195;28;20207;-70
2022/09/17 06:23:52;;;;;;;0.90;0.68;;;20.60;67.20;;;;;;5036031;28;20200;-70
2022/09/17 06:26:18;;;;;;;0.82;0.50;;;20.60;67.00;;;;;;5052726;28;20218;-70
2022/09/17 06:28:44;;;;;;;1.17;0.70;;;20.60;67.00;;;;;;5037293;28;20187;-70
2022/09/17 06:31:12;;;;;;;0.60;0.60;;;20.60;67.00;;;;;;5036722;28;20199;-69
2022/09/17 06:33:38;;;;;;;0.63;0.60;;;20.60;67.00;;;;;;5037580;28;20183;-70
2022/09/17 06:36:11;;;;;;;1.27;0.68;;;20.60;67.00;;;;;;5053991;28;20210;-71
2022/09/17 06:38:37;;;;;;;0.90;0.70;;;20.60;66.70;;;;;;5037065;28;20197;-71
2022/09/17 06:41:04;;;;;;;0.85;0.80;;;20.60;66.90;;;;;;5036010;28;20214;-70
2022/09/17 06:43:30;;;;;;;1.15;0.60;;;20.60;66.90;;;;;;5036728;28;20210;-70
2022/09/17 06:46:02;;;;;;;1.13;0.60;;;20.60;67.00;;;;;;5038922;28;20686;-70
2022/09/17 06:48:29;;;;;;;0.77;0.60;;;20.60;66.90;;;;;;5037212;28;20286;-69
2022/09/17 06:51:00;;;;;;;0.95;0.70;;;20.60;66.90;;;;;;5037901;28;20211;-69
2022/09/17 06:53:28;;;;;;;0.95;0.73;;;20.60;66.80;;;;;;5037340;28;20175;-70
2022/09/17 06:55:57;;;;;;;1.00;0.60;;;20.60;66.70;;;;;;5054584;28;20180;-70
2022/09/17 06:58:24;;;;;;;1.13;0.77;;;20.60;66.70;;;;;;5036685;28;20278;-70
2022/09/17 07:00:50;;;;;;;1.83;0.80;;;20.60;66.50;;;;;;5052880;28;20211;-70
2022/09/17 07:03:18;;;;;;;0.60;0.60;;;20.60;66.70;;;;;;5053565;28;20183;-70
2022/09/17 07:05:48;;;;;;;1.25;0.70;;;20.60;66.80;;;;;;5037119;28;20207;-69
2022/09/17 07:08:13;;;;;;;1.67;0.82;;;20.60;66.70;;;;;;5021574;28;20190;-70
2022/09/17 07:10:39;;;;;;;1.33;0.80;;;20.60;66.90;;;;;;5037358;28;20187;-70
2022/09/17 07:13:05;;;;;;;2.05;1.08;;;20.60;66.80;;;;;;5018621;28;20233;-70
2022/09/17 07:15:31;;;;;;;1.55;0.98;;;20.60;66.70;;;;;;5016436;28;20218;-70
2022/09/17 07:17:57;;;;;;;0.98;0.80;;;20.60;66.80;;;;;;5036635;28;20195;-71
2022/09/17 07:20:24;;;;;;;1.27;0.70;;;20.60;67.00;;;;;;5035485;28;20248;-70
2022/09/17 07:22:57;;;;;;;1.77;0.80;;;20.60;66.70;;;;;;5034850;28;20239;-70
2022/09/17 07:25:25;;;;;;;1.13;0.70;;;20.60;66.90;;;;;;5036038;28;20234;-70
2022/09/17 07:27:51;;;;;;;2.00;0.70;;;20.60;66.90;;;;;;5035898;28;20187;-71
2022/09/17 07:30:18;;;;;;;0.75;0.70;;;20.60;66.70;;;;;;5035596;28;20183;-70
2022/09/17 07:32:44;;;;;;;0.77;0.60;;;20.60;66.90;;;;;;5035775;28;20203;-70
2022/09/17 07:35:10;;;;;;;1.05;0.70;;;20.60;66.70;;;;;;5053045;28;20274;-70
2022/09/17 07:37:37;;;;;;;0.60;0.60;;;20.60;66.60;;;;;;5036665;28;20187;-70
2022/09/17 07:40:06;;;;;;;1.05;0.88;;;20.60;66.60;;;;;;5035788;28;20655;-70
2022/09/17 07:42:31;;;;;;;1.30;0.75;;;20.60;66.60;;;;;;5036773;28;20211;-70
2022/09/17 07:44:57;;;;;;;0.93;0.70;;;20.60;66.60;;;;;;5036412;28;20265;-70
2022/09/17 07:47:23;;;;;;;1.95;0.88;;;20.60;66.60;;;;;;5037212;28;20191;-70
2022/09/17 07:49:49;;;;;;;0.80;0.50;;;20.60;66.60;;;;;;5052741;28;20249;-70
2022/09/17 07:52:15;;;;;;;1.00;0.65;;;20.60;66.70;;;;;;5036974;28;20271;-70
2022/09/17 07:54:41;;;;;;;1.52;0.95;;;20.60;66.50;;;;;;5040781;28;20183;-70
2022/09/17 07:57:07;;;;;;;1.27;0.80;;;20.60;66.80;;;;;;5039200;28;20259;-70
2022/09/17 07:59:33;;;;;;;1.80;0.75;;;20.60;66.70;;;;;;5040058;28;20222;-70
2022/09/17 08:01:58;;;;;;;0.95;0.75;;;20.60;66.60;;;;;;5039423;28;20296;-70
2022/09/17 08:04:24;;;;;;;1.40;1.00;;;20.60;66.50;;;;;;5040154;28;20194;-70
2022/09/17 08:06:50;;;;;;;1.30;0.75;;;20.60;66.80;;;;;;5040589;28;20175;-70
2022/09/17 08:09:17;;;;;;;0.68;0.65;;;20.60;66.70;;;;;;5038681;28;20210;-70
2022/09/17 08:11:43;;;;;;;0.70;0.70;;;20.60;66.60;;;;;;5055673;28;20234;-71
2022/09/17 08:14:13;;;;;;;1.80;0.60;;;20.60;66.60;;;;;;5040476;28;20234;-71
2022/09/17 08:16:39;;;;;;;1.08;0.60;;;20.60;66.60;;;;;;5055792;28;20193;-71
2022/09/17 08:19:05;;;;;;;1.38;0.65;;;20.60;66.80;;;;;;5022741;28;20250;-70
2022/09/17 08:21:31;;;;;;;0.68;0.65;;;20.50;66.50;;;;;;5040526;28;20195;-71
2022/09/17 08:23:57;;;;;;;1.15;1.00;;;20.50;66.50;;;;;;5056533;28;20286;-70
2022/09/17 08:26:24;;;;;;;1.45;0.80;;;20.60;66.70;;;;;;5039640;28;20690;-70
2022/09/17 08:28:55;;;;;;;0.95;0.60;;;20.60;66.60;;;;;;5039885;28;20179;-70
2022/09/17 08:31:24;;;;;;;1.25;0.77;;;20.60;66.50;;;;;;5034554;28;20204;-70
2022/09/17 08:33:50;;;;;;;1.77;0.80;;;20.60;66.40;;;;;;5053509;28;20195;-70
2022/09/17 08:36:18;;;;;;;1.33;0.80;;;20.60;66.50;;;;;;5022033;28;20239;-70
2022/09/17 08:38:44;;;;;;;0.70;0.63;;;20.60;66.40;;;;;;5037070;28;20195;-70
2022/09/17 08:41:10;;;;;;;0.65;0.55;;;20.60;66.40;;;;;;5035919;28;20235;-71
2022/09/17 08:44:07;;;;;;;0.75;0.70;;;20.60;66.40;;;;;;5051793;28;20195;-70
2022/09/17 08:46:49;;;;;;;1.92;0.75;;;20.60;66.40;;;;;;5030042;28;20226;-70
2022/09/17 08:49:54;;;;;;;1.05;0.80;;;20.60;66.30;;;;;;5039885;28;20167;-70
2022/09/17 08:52:23;;;;;;;1.77;0.80;;;20.60;66.20;;;;;;5026266;28;20219;-70
2022/09/17 08:55:10;;;;;;;1.35;0.70;;;20.60;66.40;;;;;;5038777;28;20184;-71
2022/09/17 08:57:57;;;;;;;0.75;0.70;;;20.60;66.40;;;;;;5055296;28;20179;-71
2022/09/17 09:00:24;;;;;;;1.35;0.70;;;20.60;66.40;;;;;;5022231;28;20574;-70
2022/09/17 09:03:10;;;;;;;1.25;0.80;;;20.60;66.40;;;;;;5038492;28;20188;-71
2022/09/17 09:05:47;;;;;;;0.60;0.60;;;20.60;66.30;;;;;;5020578;28;20221;-70
2022/09/17 09:08:43;;;;;;;0.70;0.70;;;20.60;66.40;;;;;;5038603;28;20183;-70
2022/09/17 09:11:16;;;;;;;1.50;0.80;;;20.60;66.30;;;;;;5048109;28;20259;-71
2022/09/17 09:13:48;;;;;;;0.82;0.70;;;20.60;66.30;;;;;;5054665;28;20230;-70
2022/09/17 09:16:23;;;;;;;2.15;0.90;;;20.60;66.30;;;;;;5045606;28;20635;-70
2022/09/17 09:19:00;;;;;;;1.85;1.02;;;20.60;66.40;;;;;;5036652;28;20666;-71
2022/09/17 09:21:30;;;;;;;0.52;0.50;;;20.60;66.30;;;;;;5045722;28;20199;-70
2022/09/17 09:24:03;;;;;;;0.90;0.77;;;20.60;66.30;;;;;;5057237;28;20228;-71
2022/09/17 09:26:53;;;;;;;0.80;0.80;;;20.60;66.40;;;;;;5057094;28;20215;-70
2022/09/17 09:30:02;;;;;;;1.00;0.88;;;20.60;66.20;;;;;;5056802;28;20184;-70
2022/09/17 09:32:58;;;;;;;0.55;0.55;;;20.60;66.40;;;;;;5029609;28;20231;-70
2022/09/17 09:35:42;;;;;;;0.70;0.50;;;20.60;66.40;;;;;;5046261;28;20215;-71
2022/09/17 09:38:08;;;;;;;0.80;0.73;;;20.60;66.40;;;;;;5038332;28;20194;-72
2022/09/17 09:41:16;;;;;;;1.20;0.80;;;20.60;66.40;;;;;;5043066;28;20263;-71
2022/09/17 09:44:01;;;;;;;1.85;0.90;;;20.60;66.40;;;;;;5038473;28;20198;-71
2022/09/17 09:47:23;;;;;;;1.48;0.73;;;20.60;66.30;;;;;;5035592;28;20215;-70
2022/09/17 09:50:28;;;;;;;1.83;0.70;;;20.70;66.30;;;;;;5018182;28;20207;-70
2022/09/17 09:53:25;;;;;;;1.95;1.00;;;20.70;66.20;;;;;;5048935;28;20187;-71
2022/09/17 09:56:36;;;;;;;1.10;0.70;;;20.70;66.20;;;;;;5075532;28;20175;-71
2022/09/17 09:59:07;;;;;;;1.10;1.05;;;20.70;66.40;;;;;;5059725;28;20182;-71
2022/09/17 10:01:39;;;;;;;1.30;0.80;;;20.70;66.20;;;;;;5060128;28;20199;-70
2022/09/17 10:04:21;;;;;;;3.08;0.88;;;20.70;66.10;;;;;;5059619;28;20273;-70
2022/09/17 10:06:51;;;;;;;0.98;0.90;;;20.70;66.10;;;;;;5063572;28;20197;-70
2022/09/17 10:09:20;;;;;;;1.50;1.00;;;20.70;66.00;;;;;;5055057;28;20248;-71
2022/09/17 10:12:16;;;;;;;1.98;0.80;;;20.70;66.30;;;;;;5080027;28;20207;-70
2022/09/17 10:14:47;;;;;;;2.55;0.88;;;20.70;66.30;;;;;;5019990;28;20203;-70
2022/09/17 10:17:21;;;;;;;2.72;1.20;;;20.70;66.40;;;;;;5054507;28;20182;-70
2022/09/17 10:20:09;;;;;;;2.55;0.93;;;20.70;66.20;;;;;;5037821;28;20190;-70
2022/09/17 10:22:46;;;;;;;1.38;0.80;;;20.70;66.20;;;;;;5037668;28;20276;-70
2022/09/17 10:25:30;;;;;;;2.13;1.00;;;20.70;66.50;;;;;;5052620;28;20687;-71
2022/09/17 10:28:02;;;;;;;2.30;1.00;;;20.70;66.50;;;;;;5055109;28;20194;-70
2022/09/17 10:30:29;;;;;;;1.65;1.00;;;20.70;66.30;;;;;;5037693;28;20333;-71
2022/09/17 10:33:24;;;;;;;2.00;1.08;;;20.70;66.40;;;;;;5019985;28;20186;-70
2022/09/17 10:36:01;;;;;;;1.42;1.10;;;20.70;66.30;;;;;;5032078;28;20250;-70
2022/09/17 10:38:35;;;;;;;1.10;1.00;;;20.70;66.30;;;;;;5036354;28;20233;-70
2022/09/17 10:41:14;;;;;;;1.92;1.02;;;20.70;66.20;;;;;;5019600;28;20207;-70
2022/09/17 10:43:40;;;;;;;1.58;1.13;;;20.70;66.50;;;;;;5037023;28;20183;-70
2022/09/17 10:46:12;;;;;;;2.33;1.10;;;20.70;66.50;;;;;;5053827;28;20202;-70
2022/09/17 10:48:56;;;;;;;2.90;1.30;;;20.70;66.40;;;;;;5053073;28;20222;-70
2022/09/17 10:51:24;;;;;;;2.38;0.93;;;20.70;66.30;;;;;;5038479;28;20203;-70
2022/09/17 10:54:14;;;;;;;2.63;1.42;;;20.70;66.20;;;;;;5034860;28;20191;-70
2022/09/17 10:56:47;;;;;;;2.00;1.30;;;20.70;66.40;;;;;;5036770;28;20179;-70
2022/09/17 10:59:33;;;;;;;1.65;1.25;;;20.70;66.40;;;;;;5044366;28;20199;-70
2022/09/17 11:02:28;;;;;;;2.22;1.10;;;20.70;66.40;;;;;;5016592;28;20211;-72
2022/09/17 11:05:20;;;;;;;1.65;1.27;;;20.70;66.50;;;;;;5000258;28;20224;-70
2022/09/17 11:08:18;;;;;;;2.50;1.20;;;20.70;66.20;;;;;;5031913;28;20195;-70
2022/09/17 11:11:09;;;;;;;2.03;1.50;;;20.60;66.40;;;;;;5032569;28;20212;-70
2022/09/17 11:13:59;;;;;;;2.03;1.13;;;20.70;66.30;;;;;;5032867;28;20188;-70
2022/09/17 11:16:55;;;;;;;2.13;1.35;;;20.70;66.40;;;;;;5030408;28;20184;-70
2022/09/17 11:19:56;;;;;;;2.30;1.40;;;20.70;66.50;;;;;;5014275;28;20187;-69
2022/09/17 11:23:04;;;;;;;2.75;1.50;;;20.70;66.40;;;;;;5016193;28;20228;-70
2022/09/17 11:25:52;;;;;;;3.25;1.20;;;20.70;66.50;;;;;;5071447;28;20219;-69
2022/09/17 11:28:42;;;;;;;3.45;1.30;;;20.70;66.40;;;;;;5034140;28;20179;-70
2022/09/17 11:31:40;;;;;;;4.35;1.63;;;20.70;66.30;;;;;;5035941;28;20210;-70
2022/09/17 11:34:37;;;;;;;3.10;1.27;;;20.70;66.50;;;;;;5052310;28;20183;-70
2022/09/17 11:37:18;;;;;;;2.97;1.35;;;20.70;66.50;;;;;;5036011;28;20194;-70
2022/09/17 11:39:56;;;;;;;1.88;1.40;;;20.70;66.40;;;;;;5034864;28;20179;-70
2022/09/17 11:42:31;;;;;;;2.40;1.55;;;20.70;66.50;;;;;;5035711;28;20202;-70
2022/09/17 11:45:05;;;;;;;2.38;1.48;;;20.70;66.50;;;;;;5035340;28;20268;-70
2022/09/17 11:47:43;;;;;;;1.65;1.20;;;20.70;66.40;;;;;;5036652;28;20229;-70
2022/09/17 11:50:56;;;;;;;2.70;1.13;;;20.70;66.40;;;;;;5020047;28;20183;-70
2022/09/17 11:53:29;;;;;;;3.20;1.55;;;20.70;66.60;;;;;;5044887;28;20202;-71
2022/09/17 11:56:34;;;;;;;1.88;1.20;;;20.70;66.50;;;;;;5049038;28;20178;-70
2022/09/17 11:59:17;;;;;;;2.88;1.55;;;20.70;66.40;;;;;;5066222;28;20202;-70
2022/09/17 12:02:01;;;;;;;2.47;1.38;;;20.70;66.40;;;;;;5055181;28;20202;-70
2022/09/17 12:04:49;;;;;;;3.63;1.70;;;20.70;66.50;;;;;;5036300;28;20187;-70
2022/09/17 12:07:58;;;;;;;1.67;1.25;;;20.70;66.50;;;;;;5035743;28;20266;-70
2022/09/17 12:10:41;;;;;;;3.05;1.33;;;20.70;66.40;;;;;;5047454;28;20194;-70
2022/09/17 12:13:28;;;;;;;2.35;1.30;;;20.70;66.20;;;;;;5036957;28;20188;-70
2022/09/17 12:16:18;;;;;;;2.10;1.30;;;20.70;66.30;;;;;;5052356;28;20188;-70
2022/09/17 12:19:09;;;;;;;3.90;1.42;;;20.70;66.20;;;;;;5036325;28;20199;-69
2022/09/17 12:22:07;;;;;;;3.30;1.83;;;20.70;66.50;;;;;;5036778;28;20272;-70
2022/09/17 12:24:33;;;;;;;2.95;1.58;;;20.70;66.50;;;;;;5019242;28;20191;-70
2022/09/17 12:27:20;;;;;;;2.35;1.35;;;20.70;66.50;;;;;;5052438;28;20178;-70
2022/09/17 12:30:20;;;;;;;2.10;1.30;;;20.70;66.60;;;;;;5035634;28;20282;-70
2022/09/17 12:33:10;;;;;;;2.78;1.08;;;20.70;66.60;;;;;;5020175;28;20254;-70
2022/09/17 12:35:48;;;;;;;3.30;1.45;;;20.70;66.60;;;;;;5036306;28;20182;-70
2022/09/17 12:38:48;;;;;;;2.70;1.27;;;20.70;66.50;;;;;;5042623;28;20186;-70
2022/09/17 12:41:18;;;;;;;1.60;1.10;;;20.70;66.40;;;;;;5046028;28;20207;-71
2022/09/17 12:44:10;;;;;;;3.47;1.48;;;20.70;66.40;;;;;;5038890;28;20234;-70
2022/09/17 12:47:12;;;;;;;3.05;1.30;;;20.70;66.50;;;;;;5038789;28;20211;-70
2022/09/17 12:50:28;;;;;;;2.72;1.40;;;20.70;66.50;;;;;;5039681;28;20194;-70
2022/09/17 12:53:20;;;;;;;3.15;1.25;;;20.70;66.50;;;;;;5040490;28;20238;-70
2022/09/17 12:56:16;;;;;;;1.85;1.05;;;20.70;66.40;;;;;;5040915;28;20191;-70
2022/09/17 12:59:04;;;;;;;2.72;1.40;;;20.70;66.20;;;;;;5036048;28;20180;-70
2022/09/17 13:01:57;;;;;;;3.00;1.50;;;20.70;66.20;;;;;;5018078;28;20211;-70
2022/09/17 13:05:05;;;;;;;2.75;1.23;;;20.70;66.20;;;;;;5034929;28;20184;-70
2022/09/17 13:07:55;;;;;;;2.65;1.10;;;20.70;66.20;;;;;;5020258;28;20192;-70
2022/09/17 13:10:39;;;;;;;1.70;1.38;;;20.70;66.10;;;;;;5041222;28;20186;-70
2022/09/17 13:13:26;;;;;;;1.98;1.23;;;20.70;66.30;;;;;;5039139;28;20191;-70
2022/09/17 13:16:14;;;;;;;3.83;1.40;;;20.70;66.50;;;;;;5036692;28;20279;-70
2022/09/17 13:18:54;;;;;;;3.03;1.20;;;20.70;66.30;;;;;;5038909;28;20183;-70
2022/09/17 13:21:36;;;;;;;2.90;1.20;;;20.70;66.40;;;;;;5055158;28;20210;-70
2022/09/17 13:24:23;;;;;;;1.58;1.33;;;20.70;66.10;;;;;;5038173;28;20675;-70
2022/09/17 13:26:52;;;;;;;5.38;1.40;;;20.70;66.20;;;;;;5040523;28;20606;-71
2022/09/17 13:29:46;;;;;;;3.78;1.55;;;20.70;66.50;;;;;;5038825;28;20187;-70
2022/09/17 13:32:33;;;;;;;3.67;1.48;;;20.70;66.30;;;;;;5038120;28;20278;-70
2022/09/17 13:35:05;;;;;;;2.78;1.50;;;20.70;66.30;;;;;;5071688;28;20202;-70
2022/09/17 13:37:34;;;;;;;4.05;1.70;;;20.70;66.40;;;;;;5068710;28;20192;-70
2022/09/17 13:40:01;;;;;;;2.88;1.90;;;20.70;66.20;;;;;;5022855;28;20187;-70